Time;durP1;ratioP1;P1;durP2;ratioP2;P2;SDS_P1;SDS_P2;PMS_P1;PMS_P2;Temp;Humidity;BMP_temperature;BMP_pressure;BME280_temperature;BME280_humidity;BME280_pressure;Samples;Min_cycle;Max_cycle;Signal;HPM_P1;HPM_P2
2023/06/17 00:02:05;;;;;;;9.97;9.07;;;19.50;80.00;;;;;;4957794;28;20460;-63
2023/06/17 00:04:31;;;;;;;9.53;8.80;;;19.50;80.90;;;;;;4957531;29;20187;-62
2023/06/17 00:06:57;;;;;;;9.90;9.10;;;19.40;80.80;;;;;;4957844;28;20487;-63
2023/06/17 00:09:23;;;;;;;10.17;9.37;;;19.40;80.90;;;;;;4957203;29;20216;-62
2023/06/17 00:11:48;;;;;;;9.90;9.00;;;19.30;81.80;;;;;;4957404;29;20617;-63
2023/06/17 00:14:16;;;;;;;10.70;9.83;;;19.30;81.90;;;;;;4957462;29;20260;-62
2023/06/17 00:16:45;;;;;;;10.00;9.10;;;19.20;82.80;;;;;;4957042;28;20260;-63
2023/06/17 00:19:15;;;;;;;10.00;9.00;;;19.20;83.20;;;;;;4957312;28;20409;-63
2023/06/17 00:21:49;;;;;;;10.70;9.83;;;19.20;83.40;;;;;;4956722;28;21039;-63
2023/06/17 00:24:22;;;;;;;10.67;9.87;;;19.10;84.80;;;;;;4957820;28;20392;-63
2023/06/17 00:26:49;;;;;;;10.97;9.90;;;19.10;84.00;;;;;;4957440;29;20411;-63
2023/06/17 00:29:15;;;;;;;10.37;9.57;;;19.00;85.00;;;;;;4957288;29;20420;-63
2023/06/17 00:31:41;;;;;;;9.33;8.53;;;19.00;86.50;;;;;;4956796;28;20405;-63
2023/06/17 00:34:06;;;;;;;10.57;9.57;;;19.00;86.50;;;;;;4957277;29;20412;-62
2023/06/17 00:36:32;;;;;;;10.20;9.40;;;18.90;85.80;;;;;;4956581;28;20177;-62
2023/06/17 00:38:58;;;;;;;10.20;9.33;;;18.90;87.10;;;;;;4957103;29;20177;-63
2023/06/17 00:41:24;;;;;;;10.30;9.47;;;18.80;86.30;;;;;;4956627;29;20279;-62
2023/06/17 00:43:49;;;;;;;10.00;9.03;;;18.80;86.80;;;;;;4956690;28;20173;-62
2023/06/17 00:46:33;;;;;;;10.20;9.40;;;18.80;86.90;;;;;;4957195;29;20157;-63
2023/06/17 00:48:59;;;;;;;10.67;9.67;;;18.70;87.00;;;;;;4957223;29;20165;-63
2023/06/17 00:51:25;;;;;;;10.10;9.17;;;18.70;87.60;;;;;;4956179;28;20467;-62
2023/06/17 00:53:51;;;;;;;9.83;9.00;;;18.70;88.30;;;;;;4956970;29;20405;-63
2023/06/17 00:56:17;;;;;;;9.13;8.50;;;18.60;88.60;;;;;;4956967;29;20176;-63
2023/06/17 00:58:44;;;;;;;10.30;9.50;;;18.60;88.80;;;;;;4956320;28;20870;-63
2023/06/17 01:01:10;;;;;;;10.30;9.43;;;18.50;88.30;;;;;;4956776;29;20499;-63
2023/06/17 01:03:36;;;;;;;10.73;9.93;;;18.50;88.60;;;;;;4956258;28;20397;-63
2023/06/17 01:06:19;;;;;;;10.73;9.80;;;18.40;88.40;;;;;;4956631;29;20409;-63
2023/06/17 01:08:53;;;;;;;9.87;9.17;;;18.40;89.30;;;;;;4954983;29;20429;-63
2023/06/17 01:11:21;;;;;;;10.63;9.73;;;18.30;90.10;;;;;;4956744;29;20705;-63
2023/06/17 01:13:51;;;;;;;9.23;8.50;;;18.30;90.10;;;;;;4956298;29;20923;-63
2023/06/17 01:16:18;;;;;;;10.87;10.03;;;18.20;90.20;;;;;;4956464;29;20511;-63
2023/06/17 01:18:48;;;;;;;10.20;9.40;;;18.20;90.90;;;;;;4954786;29;20896;-63
2023/06/17 01:21:17;;;;;;;9.80;9.00;;;18.20;90.80;;;;;;4956521;28;20444;-63
2023/06/17 01:23:49;;;;;;;9.77;9.07;;;18.10;90.80;;;;;;4955898;28;20500;-62
2023/06/17 01:26:16;;;;;;;10.50;9.70;;;18.10;91.10;;;;;;4956497;28;20739;-63
2023/06/17 01:28:44;;;;;;;10.60;9.67;;;18.10;91.30;;;;;;4955790;28;20460;-63
2023/06/17 01:31:12;;;;;;;10.80;9.90;;;18.10;91.10;;;;;;4956593;28;20427;-63
2023/06/17 01:33:41;;;;;;;10.27;9.47;;;18.10;91.20;;;;;;4955693;28;20429;-63
2023/06/17 01:36:18;;;;;;;10.47;9.57;;;18.00;91.40;;;;;;4955884;29;20967;-63
2023/06/17 01:38:48;;;;;;;10.60;9.70;;;18.00;91.70;;;;;;4955652;28;20396;-63
2023/06/17 01:41:24;;;;;;;11.60;10.77;;;18.00;92.00;;;;;;4955908;28;20543;-62
2023/06/17 01:43:51;;;;;;;9.73;9.00;;;18.00;92.20;;;;;;4955629;29;20825;-62
2023/06/17 01:46:17;;;;;;;11.07;10.17;;;17.90;91.60;;;;;;4956060;29;20853;-63
2023/06/17 01:48:44;;;;;;;10.63;9.80;;;17.90;91.50;;;;;;4954820;28;20658;-63
2023/06/17 01:51:10;;;;;;;9.80;9.00;;;17.80;92.20;;;;;;4955875;28;20505;-63
2023/06/17 01:53:36;;;;;;;9.90;9.10;;;17.80;92.40;;;;;;4955326;28;20413;-62
2023/06/17 01:56:02;;;;;;;10.20;9.33;;;17.80;92.70;;;;;;4955996;29;20417;-63
2023/06/17 01:58:27;;;;;;;10.20;8.73;;;17.80;92.60;;;;;;4955257;29;20230;-62
2023/06/17 02:00:56;;;;;;;9.00;8.10;;;17.70;92.10;;;;;;4955952;29;20555;-63
2023/06/17 02:03:22;;;;;;;9.40;8.60;;;17.70;92.30;;;;;;4955761;29;20169;-63
2023/06/17 02:05:48;;;;;;;13.07;10.40;;;17.70;92.80;;;;;;4953839;29;20881;-63
2023/06/17 02:08:15;;;;;;;10.50;9.60;;;17.60;93.10;;;;;;4955590;29;20409;-63
2023/06/17 02:10:41;;;;;;;10.17;9.37;;;17.50;92.80;;;;;;4954985;28;20779;-63
2023/06/17 02:13:10;;;;;;;10.10;9.30;;;17.50;93.10;;;;;;4955894;28;20521;-63
2023/06/17 02:15:36;;;;;;;9.70;8.80;;;17.50;93.50;;;;;;4954918;28;20831;-62
2023/06/17 02:18:02;;;;;;;11.43;10.37;;;17.50;93.70;;;;;;4954028;29;20889;-63
2023/06/17 02:20:27;;;;;;;10.70;9.80;;;17.50;93.60;;;;;;4954736;28;20401;-62
2023/06/17 02:22:53;;;;;;;9.43;8.73;;;17.50;93.60;;;;;;4955354;28;20240;-63
2023/06/17 02:25:19;;;;;;;9.67;8.77;;;17.40;93.20;;;;;;4955359;29;20416;-63
2023/06/17 02:27:45;;;;;;;11.20;10.27;;;17.40;93.40;;;;;;4954753;28;20244;-62
2023/06/17 02:30:12;;;;;;;9.50;8.80;;;17.30;93.40;;;;;;4955273;28;20455;-63
2023/06/17 02:32:37;;;;;;;10.27;9.37;;;17.30;93.60;;;;;;4954570;28;20185;-63
2023/06/17 02:35:03;;;;;;;10.20;9.50;;;17.30;93.60;;;;;;4955130;29;20427;-63
2023/06/17 02:37:29;;;;;;;10.33;9.43;;;17.20;94.50;;;;;;4954571;29;20220;-62
2023/06/17 02:39:55;;;;;;;9.90;9.20;;;17.20;94.40;;;;;;4955150;28;20413;-63
2023/06/17 02:42:21;;;;;;;10.50;9.70;;;17.10;94.30;;;;;;4954850;29;20213;-63
2023/06/17 02:44:47;;;;;;;11.10;10.07;;;17.10;94.30;;;;;;4954139;29;20566;-63
2023/06/17 02:47:12;;;;;;;9.40;8.70;;;17.00;94.30;;;;;;4954645;29;20400;-63
2023/06/17 02:49:41;;;;;;;10.33;9.43;;;17.00;94.50;;;;;;4954139;28;20177;-63
2023/06/17 02:52:06;;;;;;;10.20;9.40;;;17.00;95.00;;;;;;4954881;29;20464;-63
2023/06/17 02:54:32;;;;;;;10.53;9.40;;;17.00;95.00;;;;;;4954284;29;20165;-62
2023/06/17 02:56:58;;;;;;;9.63;8.93;;;16.90;94.80;;;;;;4954902;29;20785;-63
2023/06/17 02:59:24;;;;;;;9.80;8.87;;;16.90;94.90;;;;;;4953958;28;20274;-62
2023/06/17 03:01:51;;;;;;;10.50;9.60;;;16.90;95.00;;;;;;4953841;28;20192;-62
2023/06/17 03:04:20;;;;;;;10.63;9.83;;;16.90;95.30;;;;;;4954734;28;20408;-63
2023/06/17 03:06:46;;;;;;;11.10;9.50;;;16.90;95.50;;;;;;4954401;28;20419;-63
2023/06/17 03:09:11;;;;;;;9.50;8.70;;;16.80;95.70;;;;;;4954605;29;20389;-63
2023/06/17 03:11:37;;;;;;;10.00;9.20;;;16.80;95.50;;;;;;4954131;29;20224;-62
2023/06/17 03:14:03;;;;;;;10.30;9.50;;;16.80;95.50;;;;;;4954912;29;20232;-63
2023/06/17 03:16:33;;;;;;;10.17;9.33;;;16.80;95.70;;;;;;4954150;29;20256;-60
2023/06/17 03:19:00;;;;;;;10.17;9.27;;;16.80;96.10;;;;;;4954709;28;20404;-63
2023/06/17 03:21:29;;;;;;;10.77;9.67;;;16.80;95.80;;;;;;4954529;28;20448;-63
2023/06/17 03:23:57;;;;;;;10.90;9.90;;;16.70;96.00;;;;;;4954581;28;20824;-63
2023/06/17 03:26:23;;;;;;;10.40;9.60;;;16.70;96.20;;;;;;4954518;28;20428;-63
2023/06/17 03:28:50;;;;;;;10.20;9.27;;;16.70;96.10;;;;;;4953822;29;20923;-63
2023/06/17 03:31:20;;;;;;;9.93;9.13;;;16.70;96.30;;;;;;4954768;28;20169;-63
2023/06/17 03:33:48;;;;;;;11.07;10.17;;;16.70;96.20;;;;;;4953985;28;20841;-63
2023/06/17 03:36:14;;;;;;;9.77;8.87;;;16.60;96.40;;;;;;4954482;29;20791;-63
2023/06/17 03:38:39;;;;;;;9.57;8.87;;;16.70;96.20;;;;;;4953855;29;20413;-62
2023/06/17 03:41:05;;;;;;;9.10;8.40;;;16.60;95.90;;;;;;4954341;28;20259;-63
2023/06/17 03:43:32;;;;;;;9.93;9.10;;;16.60;95.70;;;;;;4953896;28;20530;-61
2023/06/17 03:45:57;;;;;;;9.30;8.60;;;16.60;95.90;;;;;;4954767;29;20645;-63
2023/06/17 03:48:25;;;;;;;9.27;8.37;;;16.60;95.70;;;;;;4954340;29;20552;-63
2023/06/17 03:50:51;;;;;;;9.03;8.20;;;16.60;95.80;;;;;;4953923;28;20204;-63
2023/06/17 03:53:17;;;;;;;9.60;8.90;;;16.60;95.50;;;;;;4954372;28;20488;-63
2023/06/17 03:55:43;;;;;;;10.10;9.10;;;16.50;95.40;;;;;;4953783;29;20172;-63
2023/06/17 03:58:14;;;;;;;9.60;8.90;;;16.60;95.80;;;;;;4954432;28;20170;-63
2023/06/17 04:00:41;;;;;;;9.40;8.67;;;16.60;96.10;;;;;;4953604;28;20777;-63
2023/06/17 04:03:07;;;;;;;8.70;8.00;;;16.60;96.30;;;;;;4954176;28;20421;-63
2023/06/17 04:05:33;;;;;;;10.13;9.00;;;16.60;96.50;;;;;;4953616;29;20409;-61
2023/06/17 04:08:02;;;;;;;9.53;8.73;;;16.70;96.60;;;;;;4954230;28;20404;-63
2023/06/17 04:10:28;;;;;;;9.20;8.40;;;16.70;96.60;;;;;;4954206;28;20445;-63
2023/06/17 04:12:54;;;;;;;8.60;8.00;;;16.70;96.70;;;;;;4956433;29;20417;-63
2023/06/17 04:15:20;;;;;;;10.33;9.33;;;16.60;96.90;;;;;;4957737;28;20475;-63
2023/06/17 04:17:45;;;;;;;9.73;8.93;;;16.70;96.70;;;;;;4957058;29;20610;-63
2023/06/17 04:20:12;;;;;;;9.70;9.00;;;16.70;96.80;;;;;;4957656;29;20168;-63
2023/06/17 04:22:42;;;;;;;9.73;9.03;;;16.70;96.80;;;;;;4956979;29;20292;-63
2023/06/17 04:25:12;;;;;;;11.10;8.87;;;16.70;96.60;;;;;;4957508;28;20953;-63
2023/06/17 04:27:38;;;;;;;9.67;8.77;;;16.70;96.20;;;;;;4957101;29;20405;-63
2023/06/17 04:30:08;;;;;;;8.60;7.90;;;16.80;96.10;;;;;;4957515;28;20412;-63
2023/06/17 04:32:42;;;;;;;9.03;8.33;;;16.80;95.40;;;;;;4956568;28;20770;-62
2023/06/17 04:35:09;;;;;;;8.80;8.10;;;16.80;95.70;;;;;;4957334;28;20755;-63
2023/06/17 04:37:36;;;;;;;9.63;7.90;;;16.90;95.60;;;;;;4956427;29;20409;-62
2023/06/17 04:40:06;;;;;;;8.73;8.03;;;16.90;96.20;;;;;;4957260;28;20412;-63
2023/06/17 04:42:33;;;;;;;9.10;8.37;;;17.00;96.00;;;;;;4957434;29;20491;-63
2023/06/17 04:45:00;;;;;;;9.73;8.90;;;17.10;96.30;;;;;;4956878;28;20455;-63
2023/06/17 04:47:28;;;;;;;9.70;8.80;;;17.10;95.60;;;;;;4955989;29;20421;-63
2023/06/17 04:49:55;;;;;;;8.93;8.13;;;17.20;95.10;;;;;;4955357;29;20404;-63
2023/06/17 04:52:24;;;;;;;8.23;7.63;;;17.20;95.00;;;;;;4957071;29;20463;-63
2023/06/17 04:54:52;;;;;;;8.90;8.17;;;17.30;95.10;;;;;;4956410;28;20435;-63
2023/06/17 04:57:18;;;;;;;9.70;8.90;;;17.30;95.00;;;;;;4956964;29;20428;-63
2023/06/17 04:59:44;;;;;;;9.70;8.93;;;17.40;95.40;;;;;;4956289;29;20433;-63
2023/06/17 05:02:10;;;;;;;10.00;9.20;;;17.40;94.50;;;;;;4956746;29;20204;-63
2023/06/17 05:04:36;;;;;;;10.10;9.20;;;17.40;93.90;;;;;;4956210;28;20188;-61
2023/06/17 05:07:01;;;;;;;10.30;9.50;;;17.50;94.20;;;;;;4956795;29;20928;-63
2023/06/17 05:09:27;;;;;;;10.20;9.30;;;17.50;94.50;;;;;;4956940;28;20177;-63
2023/06/17 05:11:53;;;;;;;9.73;8.80;;;17.60;94.80;;;;;;4955842;29;20169;-63
2023/06/17 05:14:19;;;;;;;10.57;9.77;;;17.70;94.50;;;;;;4956572;29;20272;-63
2023/06/17 05:16:44;;;;;;;9.47;8.67;;;17.70;93.60;;;;;;4956011;29;20663;-63
2023/06/17 05:19:10;;;;;;;10.73;9.67;;;17.60;93.10;;;;;;4956584;28;20255;-64
2023/06/17 05:21:36;;;;;;;9.87;8.63;;;17.70;93.30;;;;;;4956423;28;20204;-61
2023/06/17 05:24:02;;;;;;;9.87;8.97;;;17.80;93.30;;;;;;4955506;28;20174;-64
2023/06/17 05:26:28;;;;;;;10.07;9.00;;;17.90;93.40;;;;;;4956189;28;20419;-64
2023/06/17 05:28:54;;;;;;;9.90;9.20;;;17.90;93.20;;;;;;4955944;28;20173;-63
2023/06/17 05:31:20;;;;;;;9.40;8.60;;;17.90;93.30;;;;;;4956607;28;20602;-64
2023/06/17 05:33:46;;;;;;;10.30;9.47;;;17.90;93.30;;;;;;4954557;29;20532;-64
2023/06/17 05:36:12;;;;;;;9.67;8.87;;;18.00;93.40;;;;;;4956315;28;20268;-64
2023/06/17 05:38:37;;;;;;;11.10;9.97;;;18.10;92.80;;;;;;4955963;28;20173;-60
2023/06/17 05:41:03;;;;;;;9.77;8.77;;;18.20;92.50;;;;;;4955083;29;20542;-63
2023/06/17 05:43:29;;;;;;;9.70;8.90;;;18.20;92.30;;;;;;4956067;29;20177;-63
2023/06/17 05:45:55;;;;;;;9.97;9.10;;;18.30;92.50;;;;;;4955111;28;20225;-63
2023/06/17 05:48:21;;;;;;;9.60;8.80;;;18.30;92.50;;;;;;4956038;29;20939;-64
2023/06/17 05:50:46;;;;;;;9.37;8.57;;;18.40;92.40;;;;;;4955398;29;20177;-63
2023/06/17 05:53:12;;;;;;;10.07;9.07;;;18.50;92.20;;;;;;4956150;29;20169;-63
2023/06/17 05:55:38;;;;;;;9.60;8.70;;;18.60;92.30;;;;;;4955838;29;20173;-64
2023/06/17 05:58:04;;;;;;;10.53;9.70;;;18.60;92.30;;;;;;4955826;29;20680;-63
2023/06/17 06:00:30;;;;;;;9.27;8.47;;;18.70;92.10;;;;;;4955721;28;20423;-64
2023/06/17 06:02:55;;;;;;;9.27;8.37;;;18.70;91.50;;;;;;4955133;29;20256;-63
2023/06/17 06:05:21;;;;;;;9.80;9.00;;;18.80;91.40;;;;;;4955829;29;20259;-64
2023/06/17 06:07:47;;;;;;;9.57;8.80;;;18.80;91.00;;;;;;4955129;29;20169;-63
2023/06/17 06:10:13;;;;;;;10.93;10.00;;;18.90;91.30;;;;;;4955720;29;20567;-63
2023/06/17 06:12:39;;;;;;;10.50;9.60;;;19.00;92.20;;;;;;4955810;29;20176;-64
2023/06/17 06:15:05;;;;;;;10.33;9.43;;;19.00;92.30;;;;;;4955729;28;20177;-63
2023/06/17 06:17:31;;;;;;;9.90;9.20;;;19.10;91.80;;;;;;4955556;28;20408;-63
2023/06/17 06:19:57;;;;;;;13.03;10.97;;;19.20;91.50;;;;;;4954798;29;20467;-63
2023/06/17 06:22:23;;;;;;;11.47;10.50;;;19.30;91.40;;;;;;4970196;28;20444;-63
2023/06/17 06:24:49;;;;;;;11.47;10.47;;;19.30;91.00;;;;;;4954721;28;20423;-63
2023/06/17 06:27:15;;;;;;;10.63;9.83;;;19.40;90.60;;;;;;4955351;28;20204;-63
2023/06/17 06:29:41;;;;;;;11.40;10.50;;;19.50;90.20;;;;;;4954576;29;20204;-60
2023/06/17 06:32:07;;;;;;;11.90;10.93;;;19.60;90.00;;;;;;4954331;28;20409;-63
2023/06/17 06:34:33;;;;;;;11.37;10.27;;;19.70;90.10;;;;;;4954492;28;20208;-63
2023/06/17 06:36:59;;;;;;;11.80;10.80;;;19.70;90.00;;;;;;4954220;29;20421;-63
2023/06/17 06:39:25;;;;;;;11.47;10.50;;;19.80;90.00;;;;;;4955052;28;20181;-63
2023/06/17 06:41:52;;;;;;;11.50;10.50;;;19.90;89.50;;;;;;4954150;28;20476;-63
2023/06/17 06:44:18;;;;;;;12.93;11.60;;;19.90;87.00;;;;;;4954645;29;20456;-63
2023/06/17 06:46:44;;;;;;;11.87;10.87;;;20.00;87.50;;;;;;4954448;29;20420;-62
2023/06/17 06:49:10;;;;;;;12.30;10.10;;;20.10;88.60;;;;;;4955242;29;20413;-63
2023/06/17 06:51:36;;;;;;;10.80;9.90;;;20.20;88.70;;;;;;4954568;29;20439;-63
2023/06/17 06:54:04;;;;;;;11.43;10.43;;;20.30;88.30;;;;;;4954217;28;20868;-63
2023/06/17 06:56:30;;;;;;;10.23;9.30;;;20.40;88.00;;;;;;4954490;28;20420;-63
2023/06/17 06:58:56;;;;;;;11.03;10.13;;;20.50;88.10;;;;;;4954260;29;20899;-63
2023/06/17 07:01:29;;;;;;;10.30;9.30;;;20.60;86.70;;;;;;4954662;28;20280;-63
2023/06/17 07:03:55;;;;;;;9.33;8.63;;;20.80;86.80;;;;;;4954187;28;20208;-63
2023/06/17 07:06:20;;;;;;;10.80;9.67;;;20.90;86.30;;;;;;4954577;29;20445;-63
2023/06/17 07:08:46;;;;;;;9.90;8.90;;;21.10;85.00;;;;;;4954083;29;20177;-63
2023/06/17 07:11:12;;;;;;;10.90;9.20;;;21.20;84.40;;;;;;4954687;28;20177;-63
2023/06/17 07:13:37;;;;;;;9.23;8.53;;;21.30;83.60;;;;;;4954386;29;20240;-63
2023/06/17 07:16:04;;;;;;;10.07;9.17;;;21.40;84.20;;;;;;4954003;29;20297;-63
2023/06/17 07:18:30;;;;;;;9.30;8.50;;;21.60;83.70;;;;;;4954669;28;20177;-63
2023/06/17 07:20:56;;;;;;;10.70;9.80;;;21.70;82.90;;;;;;4953621;28;20530;-63
2023/06/17 07:23:23;;;;;;;9.70;8.93;;;21.80;81.40;;;;;;4954464;29;20517;-63
2023/06/17 07:25:49;;;;;;;10.70;9.80;;;22.00;81.10;;;;;;4953699;29;20565;-62
2023/06/17 07:28:16;;;;;;;12.17;11.17;;;22.10;79.20;;;;;;4954140;29;20444;-63
2023/06/17 07:30:41;;;;;;;12.73;11.63;;;22.20;78.90;;;;;;4954487;28;20173;-63
2023/06/17 07:33:07;;;;;;;10.80;9.90;;;22.30;77.80;;;;;;4953767;29;20843;-63
2023/06/17 07:35:33;;;;;;;11.03;10.23;;;22.40;78.10;;;;;;4954486;28;20177;-63
2023/06/17 07:37:59;;;;;;;11.33;10.37;;;22.60;76.20;;;;;;4953837;28;20169;-62
2023/06/17 07:40:24;;;;;;;10.17;9.37;;;22.80;77.10;;;;;;4954426;29;20169;-63
2023/06/17 07:42:50;;;;;;;10.80;10.00;;;22.90;76.50;;;;;;4953816;29;20765;-62
2023/06/17 07:45:16;;;;;;;10.60;9.80;;;22.90;74.90;;;;;;4953087;28;20239;-63
2023/06/17 07:47:42;;;;;;;10.23;9.20;;;23.00;76.40;;;;;;4957581;29;20173;-63
2023/06/17 07:50:08;;;;;;;9.87;9.07;;;23.20;76.10;;;;;;4957537;28;20188;-63
2023/06/17 07:52:35;;;;;;;10.23;9.33;;;23.40;76.10;;;;;;4957995;29;20255;-63
2023/06/17 07:55:04;;;;;;;9.43;8.70;;;23.50;73.40;;;;;;4957372;28;20436;-62
2023/06/17 07:57:30;;;;;;;11.70;10.30;;;23.60;72.90;;;;;;4957674;29;20196;-63
2023/06/17 07:59:56;;;;;;;9.13;8.43;;;23.60;73.30;;;;;;4957165;28;20412;-62
2023/06/17 08:02:22;;;;;;;10.10;9.30;;;23.80;73.10;;;;;;4957784;29;20248;-63
2023/06/17 08:04:49;;;;;;;8.90;8.10;;;24.00;70.80;;;;;;4957249;28;20408;-62
2023/06/17 08:07:15;;;;;;;9.13;8.43;;;24.10;71.30;;;;;;4957565;28;20204;-62
2023/06/17 08:09:41;;;;;;;9.03;8.43;;;24.30;70.30;;;;;;4956318;29;20893;-63
2023/06/17 08:12:07;;;;;;;10.77;8.40;;;24.30;68.60;;;;;;4956776;29;20431;-63
2023/06/17 08:14:33;;;;;;;8.50;7.90;;;24.50;70.00;;;;;;4957374;29;20268;-62
2023/06/17 08:16:59;;;;;;;9.20;8.43;;;24.50;67.90;;;;;;4957014;28;20451;-63
2023/06/17 08:19:25;;;;;;;8.27;7.67;;;24.60;66.10;;;;;;4956291;29;20173;-63
2023/06/17 08:21:51;;;;;;;8.27;7.67;;;24.80;65.70;;;;;;4957040;29;20603;-62
2023/06/17 08:24:18;;;;;;;7.70;7.20;;;24.90;63.90;;;;;;4957246;29;20185;-63
2023/06/17 08:26:44;;;;;;;8.30;7.70;;;25.10;63.80;;;;;;4957276;29;20165;-63
2023/06/17 08:29:12;;;;;;;7.37;6.77;;;25.30;63.30;;;;;;4956821;28;20576;-63
2023/06/17 08:31:40;;;;;;;7.40;6.90;;;25.40;63.00;;;;;;4957386;29;20517;-63
2023/06/17 08:34:05;;;;;;;7.77;7.10;;;25.50;63.00;;;;;;4956698;29;20408;-63
2023/06/17 08:36:32;;;;;;;7.60;6.90;;;25.70;61.00;;;;;;4957312;29;20444;-63
2023/06/17 08:38:59;;;;;;;8.00;7.40;;;25.80;61.10;;;;;;4956619;28;20177;-63
2023/06/17 08:41:26;;;;;;;7.53;6.93;;;25.90;59.90;;;;;;4957103;28;20476;-63
2023/06/17 08:44:00;;;;;;;7.90;7.20;;;25.90;59.10;;;;;;4956327;28;20424;-62
2023/06/17 08:46:27;;;;;;;7.50;7.00;;;26.00;58.10;;;;;;4957159;28;20815;-63
2023/06/17 08:48:54;;;;;;;7.60;7.10;;;26.20;57.10;;;;;;4956492;28;20770;-62
2023/06/17 08:51:20;;;;;;;7.83;7.23;;;26.20;56.10;;;;;;4956945;28;20830;-63
2023/06/17 08:53:47;;;;;;;8.00;7.40;;;26.40;56.20;;;;;;4956893;28;20909;-63
2023/06/17 08:56:13;;;;;;;7.67;7.10;;;26.50;57.10;;;;;;4956219;29;20421;-63
2023/06/17 08:58:39;;;;;;;9.00;8.27;;;26.60;56.10;;;;;;4955569;28;20902;-63
2023/06/17 09:01:08;;;;;;;8.57;7.97;;;26.80;55.70;;;;;;4956099;29;20205;-62
2023/06/17 09:03:37;;;;;;;8.97;8.27;;;26.80;55.90;;;;;;4956863;28;20397;-63
2023/06/17 09:06:21;;;;;;;9.20;8.47;;;26.80;55.90;;;;;;4955947;28;20920;-62
2023/06/17 09:08:48;;;;;;;9.37;8.57;;;27.00;56.40;;;;;;4956565;29;20760;-63
2023/06/17 09:11:14;;;;;;;8.40;7.80;;;27.10;56.50;;;;;;4955890;28;20420;-63
2023/06/17 09:13:40;;;;;;;8.50;7.80;;;27.10;56.40;;;;;;4956635;29;20475;-63
2023/06/17 09:16:06;;;;;;;9.10;8.30;;;27.10;56.20;;;;;;4956014;29;20409;-62
2023/06/17 09:18:33;;;;;;;8.63;7.97;;;27.10;55.80;;;;;;4956588;28;20177;-63
2023/06/17 09:21:02;;;;;;;8.37;7.67;;;27.30;56.40;;;;;;4954476;29;20413;-63
2023/06/17 09:23:28;;;;;;;8.63;7.93;;;27.40;55.10;;;;;;4956671;28;20757;-63
2023/06/17 09:26:03;;;;;;;9.03;8.23;;;27.50;56.00;;;;;;4955848;29;20413;-62
2023/06/17 09:28:29;;;;;;;10.20;8.20;;;27.60;54.80;;;;;;4956555;28;20161;-63
2023/06/17 09:30:57;;;;;;;10.77;7.90;;;27.70;53.20;;;;;;4955808;28;20447;-63
2023/06/17 09:33:27;;;;;;;8.00;7.30;;;27.80;53.70;;;;;;4956531;28;20479;-63
2023/06/17 09:36:04;;;;;;;9.10;8.47;;;27.90;53.30;;;;;;4955293;29;20889;-62
2023/06/17 09:38:33;;;;;;;8.47;7.87;;;28.00;53.90;;;;;;4956242;28;20405;-63
2023/06/17 09:40:59;;;;;;;8.30;7.70;;;28.10;54.10;;;;;;4955634;28;20774;-62
2023/06/17 09:43:26;;;;;;;8.00;7.40;;;28.20;53.50;;;;;;4956096;28;20834;-62
2023/06/17 09:45:59;;;;;;;9.07;8.10;;;28.30;53.40;;;;;;4956112;28;20460;-63
2023/06/17 09:48:40;;;;;;;9.03;8.43;;;28.40;52.10;;;;;;4955899;28;20484;-62
2023/06/17 09:51:12;;;;;;;8.70;8.10;;;28.50;52.10;;;;;;4954043;29;20439;-62
2023/06/17 09:53:38;;;;;;;9.20;8.50;;;28.60;52.80;;;;;;4955985;28;20405;-63
2023/06/17 09:56:08;;;;;;;8.70;8.00;;;28.70;53.30;;;;;;4954094;29;20417;-63
2023/06/17 09:58:37;;;;;;;8.57;7.90;;;28.80;52.50;;;;;;4955878;28;20415;-63
2023/06/17 10:01:06;;;;;;;8.57;7.87;;;28.90;50.50;;;;;;4955108;28;20464;-62
2023/06/17 10:03:37;;;;;;;9.37;8.53;;;28.90;50.00;;;;;;4955841;28;20426;-63
2023/06/17 10:06:12;;;;;;;7.80;7.30;;;29.00;51.30;;;;;;4955103;28;20393;-63
2023/06/17 10:08:41;;;;;;;8.93;8.33;;;29.00;51.70;;;;;;4955151;28;20381;-63
2023/06/17 10:11:09;;;;;;;8.13;7.63;;;29.00;50.50;;;;;;4953452;28;20421;-63
2023/06/17 10:13:38;;;;;;;9.20;8.20;;;29.10;50.80;;;;;;4955454;29;20412;-63
2023/06/17 10:16:12;;;;;;;8.07;7.57;;;29.10;50.40;;;;;;4954908;28;20440;-62
2023/06/17 10:18:41;;;;;;;8.87;8.17;;;29.20;48.50;;;;;;4955441;28;20429;-63
2023/06/17 10:21:10;;;;;;;8.40;7.80;;;29.20;47.00;;;;;;4954704;28;20460;-62
2023/06/17 10:23:37;;;;;;;9.27;8.57;;;29.10;47.20;;;;;;4953681;29;20939;-63
2023/06/17 10:26:06;;;;;;;8.97;7.90;;;29.20;48.30;;;;;;4953600;29;20883;-63
2023/06/17 10:29:07;;;;;;;8.60;8.00;;;29.30;48.80;;;;;;4955236;28;20428;-63
2023/06/17 10:31:40;;;;;;;7.90;7.40;;;29.40;48.50;;;;;;4955190;29;20424;-63
2023/06/17 10:34:19;;;;;;;8.10;7.60;;;29.30;48.50;;;;;;4954359;29;20839;-62
2023/06/17 10:36:58;;;;;;;9.00;8.20;;;29.40;48.00;;;;;;4955131;29;20829;-63
2023/06/17 10:39:24;;;;;;;8.10;7.40;;;29.40;48.80;;;;;;4955112;28;20419;-63
2023/06/17 10:41:55;;;;;;;8.50;7.90;;;29.50;48.20;;;;;;4955257;28;20471;-63
2023/06/17 10:44:33;;;;;;;8.70;7.90;;;29.60;46.40;;;;;;4955030;28;20549;-63
2023/06/17 10:46:59;;;;;;;7.70;7.20;;;29.70;46.30;;;;;;4954116;28;20421;-62
2023/06/17 10:49:38;;;;;;;8.17;7.47;;;29.80;47.80;;;;;;4954673;28;20417;-63
2023/06/17 10:52:04;;;;;;;7.87;7.30;;;29.90;48.00;;;;;;4954216;29;20401;-62
2023/06/17 10:54:32;;;;;;;8.10;7.50;;;30.00;45.70;;;;;;4953229;29;20776;-63
2023/06/17 10:57:01;;;;;;;7.30;6.80;;;30.10;45.50;;;;;;4954237;29;20405;-62
2023/06/17 10:59:29;;;;;;;8.03;7.43;;;30.20;45.70;;;;;;4954724;29;20417;-63
2023/06/17 11:02:03;;;;;;;7.90;7.20;;;30.10;45.80;;;;;;4954359;29;20459;-63
2023/06/17 11:04:32;;;;;;;8.70;7.90;;;30.20;44.30;;;;;;4954696;28;20417;-63
2023/06/17 11:07:02;;;;;;;8.77;8.07;;;30.30;46.30;;;;;;4954129;28;20409;-62
2023/06/17 11:09:29;;;;;;;9.00;7.70;;;30.30;45.30;;;;;;4954717;29;20420;-63
2023/06/17 11:11:57;;;;;;;7.70;6.90;;;30.30;46.00;;;;;;4954942;28;20420;-63
2023/06/17 11:14:26;;;;;;;8.63;8.03;;;30.50;46.30;;;;;;4954690;29;20417;-63
2023/06/17 11:16:51;;;;;;;8.80;8.30;;;30.60;45.10;;;;;;4954541;29;20416;-63
2023/06/17 11:19:17;;;;;;;8.83;8.23;;;30.60;45.50;;;;;;4952758;29;21012;-63
2023/06/17 11:21:43;;;;;;;7.80;7.30;;;30.70;44.90;;;;;;4953536;28;20217;-63
2023/06/17 11:24:10;;;;;;;8.20;7.70;;;30.70;43.70;;;;;;4953889;29;20176;-62
2023/06/17 11:26:37;;;;;;;8.23;7.53;;;30.70;43.60;;;;;;4954436;29;20240;-63
2023/06/17 11:29:04;;;;;;;8.17;7.67;;;30.70;45.30;;;;;;4953845;28;20459;-63
2023/06/17 11:31:40;;;;;;;7.80;7.23;;;30.80;44.40;;;;;;4954661;29;20452;-63
2023/06/17 11:34:09;;;;;;;8.07;7.57;;;30.80;43.70;;;;;;4953947;28;20790;-62
2023/06/17 11:36:38;;;;;;;8.10;7.50;;;30.90;43.60;;;;;;4954410;28;20829;-63
2023/06/17 11:39:04;;;;;;;8.43;7.83;;;30.80;42.10;;;;;;4953479;29;20408;-62
2023/06/17 11:41:31;;;;;;;9.33;8.60;;;30.80;42.90;;;;;;4954413;28;20479;-63
2023/06/17 11:43:57;;;;;;;8.37;7.87;;;30.80;44.00;;;;;;4954036;28;20173;-63
2023/06/17 11:46:24;;;;;;;8.10;7.50;;;30.90;43.90;;;;;;4953821;29;20389;-63
2023/06/17 11:48:50;;;;;;;8.20;7.70;;;30.90;43.70;;;;;;4954316;28;20471;-63
2023/06/17 11:51:17;;;;;;;8.63;8.03;;;30.90;42.60;;;;;;4953600;29;20488;-62
2023/06/17 11:53:47;;;;;;;8.40;7.80;;;31.00;43.40;;;;;;4954254;29;20417;-63
2023/06/17 11:56:16;;;;;;;8.77;8.17;;;31.10;43.10;;;;;;4953778;29;20409;-63
2023/06/17 11:58:44;;;;;;;9.07;8.30;;;31.00;43.30;;;;;;4953859;28;20524;-63
2023/06/17 12:01:12;;;;;;;9.23;8.50;;;31.00;43.60;;;;;;4953152;28;20471;-62
2023/06/17 12:03:37;;;;;;;8.80;8.20;;;30.90;43.20;;;;;;4954150;28;20459;-63
2023/06/17 12:06:03;;;;;;;8.40;7.90;;;30.90;43.00;;;;;;4953599;29;20767;-63
2023/06/17 12:08:33;;;;;;;8.63;8.07;;;30.90;43.20;;;;;;4954142;29;20180;-63
2023/06/17 12:11:25;;;;;;;8.20;7.60;;;30.90;43.50;;;;;;4953956;29;20424;-63
2023/06/17 12:13:52;;;;;;;8.07;7.57;;;30.90;43.00;;;;;;4954221;28;20495;-63
2023/06/17 12:16:31;;;;;;;8.87;8.27;;;31.00;42.60;;;;;;4953438;28;20807;-62
2023/06/17 12:18:57;;;;;;;9.37;8.67;;;31.00;43.50;;;;;;4952867;29;20413;-63
2023/06/17 12:21:24;;;;;;;8.30;7.80;;;31.00;42.10;;;;;;4953344;28;20495;-63
2023/06/17 12:23:53;;;;;;;8.13;7.63;;;31.00;42.30;;;;;;4953996;28;20412;-63
2023/06/17 12:26:20;;;;;;;8.57;7.97;;;31.10;42.80;;;;;;4953508;28;20412;-63
2023/06/17 12:28:45;;;;;;;7.83;7.37;;;31.10;42.50;;;;;;4954142;29;20785;-63
2023/06/17 12:31:12;;;;;;;7.70;7.20;;;31.20;42.00;;;;;;4953374;28;20408;-62
2023/06/17 12:33:38;;;;;;;8.77;8.17;;;31.20;41.60;;;;;;4956629;28;20173;-63
2023/06/17 12:36:05;;;;;;;8.40;7.77;;;31.20;42.00;;;;;;4956655;29;20420;-62
2023/06/17 12:38:31;;;;;;;7.70;7.20;;;31.20;41.70;;;;;;4957267;29;20417;-63
2023/06/17 12:41:02;;;;;;;7.80;7.30;;;31.20;42.00;;;;;;4957083;29;20455;-63
2023/06/17 12:43:29;;;;;;;8.20;7.60;;;31.20;39.60;;;;;;4957379;28;20496;-63
2023/06/17 12:45:58;;;;;;;11.50;10.50;;;31.10;40.40;;;;;;4957279;29;20456;-63